Home > Products > Valid Products > TAF

000
FTUS43 KFGF 252300
TAFGFK
TAF
KGFK 252338Z 2600/2624 04010KT P6SM OVC015
     FM260600 35014KT P6SM OVC025
     FM261200 35016KT P6SM OVC050
     FM261500 35013G20KT P6SM FEW050=



000
FTUS43 KFGF 252300
TAFFAR
TAF
KFAR 252338Z 2600/2624 13010KT P6SM OVC030
      TEMPO 2603/2605 4SM -SN OVC020
     FM260500 01015KT 2SM -SN OVC012
     FM260800 36017KT 1SM -SN OVC010
     FM261200 35017KT P6SM BKN015
     FM261500 36015G22KT P6SM FEW020=



000
FTUS43 KFGF 251700
TAFFAR
TAF
KFAR 251727Z 2518/2618 14007KT P6SM OVC035
     FM260000 04012KT P6SM OVC020
      TEMPO 2601/2605 4SM -SN
     FM260500 01015KT 2SM -SN OVC012
     FM260800 36017KT 1SM -SN OVC010
     FM261200 35017KT P6SM BKN015
     FM261500 36015G22KT P6SM FEW020=



000
FTUS43 KFGF 251700
TAFGFK
TAF
KGFK 251720Z 2518/2618 06003KT P6SM OVC015
     FM260000 01008KT 4SM BR OVC015
     FM260600 35014KT P6SM OVC025
     FM261200 35016KT P6SM OVC050
     FM261500 35013G20KT P6SM FEW050=



000
FTUS43 KFGF 251100
TAFGFK
TAF
KGFK 251120Z 2512/2612 VRB05KT P6SM OVC025
     FM260200 02013KT 3SM -SN OVC015
     FM260600 36017G25KT 2SM -SN OVC009=



000
FTUS43 KFGF 251100
TAFFAR
TAF
KFAR 251120Z 2512/2612 VRB04KT P6SM OVC025
     FM260500 02011KT 3SM -SN OVC012
     FM260800 36021G28KT 1SM -SN BLSN OVC009=



000
FTUS43 KFGF 250500
TAFFAR
TAF
KFAR 250524Z 2506/2606 VRB04KT P6SM OVC050
     FM251200 VRB04KT P6SM OVC025
     FM260500 02011KT 3SM -SN OVC015=



000
FTUS43 KFGF 250500
TAFGFK
TAF
KGFK 250524Z 2506/2606 VRB04KT P6SM OVC050
     FM250900 VRB04KT P6SM OVC025
     FM260300 02011KT 3SM -SN OVC015=



000
FTUS43 KFGF 242300
TAFFAR
TAF
KFAR 242322Z 2500/2524 33012KT P6SM SKC
     FM250600 VRB04KT P6SM OVC100
     FM251700 VRB04KT P6SM OVC025=



000
FTUS43 KFGF 242300
TAFGFK
TAF
KGFK 242322Z 2500/2524 33011KT P6SM SKC
     FM250600 VRB04KT P6SM OVC100
     FM251500 VRB04KT P6SM OVC025=



000
FTUS43 KFGF 241900 AAA
TAFFAR
TAF AMD
KFAR 241951Z 2420/2518 33020G26KT P6SM OVC018
      TEMPO 2420/2422 SCT020
     FM242200 32009KT P6SM BKN250
     FM250700 23005KT P6SM BKN100
     FM251100 22005KT P6SM OVC035=



000
FTUS43 KFGF 241700
TAFGFK
TAF
KGFK 241733Z 2418/2518 34022G28KT P6SM SCT025 BKN200
     FM242000 34018G24KT P6SM SCT015
     FM250000 33008KT P6SM SCT250
     FM250600 26005KT P6SM OVC100
     FM251000 25005KT P6SM OVC035=



000
FTUS43 KFGF 241700
TAFFAR
TAF
KFAR 241733Z 2418/2518 33020G26KT P6SM SCT025
      TEMPO 2418/2419 3SM -SN BR OVC020
     FM242200 32009KT P6SM BKN250
     FM250700 23005KT P6SM BKN100
     FM251100 22005KT P6SM OVC035=



000
FTUS43 KFGF 241600 AAB
TAFFAR
TAF AMD
KFAR 241636Z 2417/2512 33022G28KT 4SM -SN BR OVC020
      TEMPO 2417/2418 1SM -SN BR OVC015
     FM241800 33022G29KT P6SM OVC025
     FM242300 32009KT P6SM BKN250
     FM250700 23005KT P6SM BKN100
     FM251100 22005KT P6SM OVC025=



000
FTUS43 KFGF 241600 AAA
TAFGFK
TAF AMD
KGFK 241617Z 2416/2512 34022G28KT P6SM SCT025
     FM242000 34018G24KT P6SM SCT015
     FM250000 33008KT P6SM SCT250
     FM250600 26005KT P6SM OVC050
     FM251000 25005KT P6SM OVC025=



000
FTUS43 KFGF 241600 AAA
TAFGFK
TAF AMD
KGFK 241617Z 2416/2512 34022G28KT P6SM SCT025
     FM242000 34018G24KT P6SM SCT015
     FM250000 33008KT P6SM SCT250
     FM250600 26005KT P6SM OVC050
     FM251000 25005KT P6SM OVC025=



000
FTUS43 KFGF 241200 AAA
TAFFAR
TAF AMD
KFAR 241235Z 2413/2512 33022G28KT 3SM -SN BR OVC020
      TEMPO 2413/2415 1SM -SN BR
     FM241500 34024G30KT 6SM -SN OVC020
     FM241800 33022G29KT P6SM OVC025
     FM242300 32009KT P6SM BKN250
     FM250700 23005KT P6SM BKN100
     FM251100 22005KT P6SM OVC025=



000
FTUS43 KFGF 241100
TAFFAR
TAF
KFAR 241122Z 2412/2512 33020KT 3SM -SN BR OVC020
      TEMPO 2412/2414 1SM -SN BR
     FM241500 34024G30KT 6SM -SN OVC015
     FM241800 33022G29KT P6SM OVC015
     FM242300 32009KT P6SM BKN250
     FM250700 23005KT P6SM BKN100
     FM251100 22005KT P6SM OVC025=



000
FTUS43 KFGF 241100
TAFGFK
TAF
KGFK 241122Z 2412/2512 34024G29KT P6SM OVC025
     FM241700 34022G28KT P6SM BKN025
     FM242000 34018G24KT P6SM SCT015
     FM250000 33008KT P6SM SCT250
     FM250600 26005KT P6SM OVC050
     FM251000 25005KT P6SM OVC025=



000
FTUS43 KFGF 241000 AAA
TAFFAR
TAF AMD
KFAR 241002Z 2410/2506 33020KT 3SM -SN BR OVC020
      TEMPO 2410/2412 P6SM NSW OVC025
     FM241200 34023G30KT P6SM OVC025
     FM242300 33013KT P6SM SCT025=



000
FTUS43 KFGF 241000 AAA
TAFGFK
TAF AMD
KGFK 241000Z 2410/2506 34015G25KT P6SM OVC019
      TEMPO 2410/2412 3SM -SN BR
     FM241200 34024G29KT P6SM OVC025
     FM242300 34012KT P6SM SCT025=



000
FTUS43 KFGF 240500
TAFFAR
TAF
KFAR 240536Z 2406/2506 33020KT 3SM -SN BR OVC016
      TEMPO 2406/2410 P6SM NSW OVC024
     FM241200 34023G30KT P6SM OVC025
     FM242300 33013KT P6SM SCT025=



000
FTUS43 KFGF 240500
TAFGFK
TAF
KGFK 240536Z 2406/2506 34015G25KT P6SM OVC019
      TEMPO 2406/2408 3SM -SN BR
     FM241200 34024G29KT P6SM OVC025
     FM242300 34012KT P6SM SCT025=



000
FTUS43 KFGF 240500 AAB
TAFFAR
TAF AMD
KFAR 240501Z 2405/2424 33020KT P6SM OVC016
      TEMPO 2405/2409 4SM -SN BR OVC024
     FM241200 34028G35KT P6SM BKN025=



000
FTUS43 KFGF 240100 AAA
TAFFAR
TAF AMD
KFAR 240124Z 2401/2424 34018KT P6SM OVC009
     FM240300 34028G32KT 4SM -SN BKN015
     FM241200 34028G35KT P6SM BKN025=



000
FTUS43 KFGF 240100 AAA
TAFGFK
TAF AMD
KGFK 240122Z 2401/2424 35015G22KT P6SM BKN008
      TEMPO 2401/2402 3SM -SN BR OVC025
     FM240200 35022G30KT 4SM -SN OVC015
     FM240300 34028G35KT 3SM -SN BKN015
     FM241200 34025G33KT P6SM BKN025=



000
FTUS43 KFGF 232300
TAFGFK
TAF
KGFK 232339Z 2400/2424 35015G22KT P6SM BKN008
      TEMPO 2400/2402 4SM -FZDZ BR OVC025
     FM240200 35022G30KT 4SM -SN OVC015
     FM240300 34028G35KT 3SM -SN BKN015
     FM241200 34025G33KT P6SM BKN025=



000
FTUS43 KFGF 232300
TAFFAR
TAF
KFAR 232339Z 2400/2424 29016KT P6SM OVC045
     FM240100 32020G28KT P6SM BKN018
     FM240300 34028G32KT 4SM -SN BKN015
     FM241200 34028G35KT P6SM BKN025=



000
FTUS43 KFGF 232100 AAC
TAFGFK
TAF AMD
KGFK 232158Z 2322/2418 34015G22KT 5SM -FZDZ BR BKN008
     FM240100 35022G30KT 4SM -SN OVC015
     FM240300 34028G35KT 3SM -SN BKN015
     FM241200 34025G33KT P6SM BKN025=



000
FTUS43 KFGF 232100 AAC
TAFGFK
TAF AMD
KGFK 232158Z 2322/2418 34015G22KT 5SM -FZDZ BR BKN008
     FM240100 35022G30KT 4SM -SN OVC015
     FM240300 34028G35KT 3SM -SN BKN015
     FM241200 34025G33KT P6SM BKN025=



000
FTUS43 KFGF 232100 AAB
TAFGFK
TAF AMD
KGFK 232144Z 2322/2418 34015G22KT 5SM -FZDZ BR BKN008
     FM240000 35022G30KT 4SM -SN OVC015
     FM240300 34028G35KT 3SM -SN BKN015
      TEMPO 2403/2407 1SM -SN BLSN
     FM241200 34025G33KT P6SM BKN025=



000
FTUS43 KFGF 232000 AAA
TAFGFK
TAF AMD
KGFK 232023Z 2320/2418 32014KT P6SM BKN025
     FM232200 34015G22KT 4SM -FZDZ BR BKN015
     FM240000 35022G30KT 4SM -SN OVC015
     FM240300 34028G35KT 3SM -SN BKN015
      TEMPO 2403/2407 1SM -SN BLSN
     FM241200 34025G33KT P6SM BKN025=



000
FTUS43 KFGF 231900 AAA
TAFFAR
TAF AMD
KFAR 231926Z 2319/2418 30015G23KT P6SM BKN025
     FM240000 32020G28KT P6SM BKN020
     FM240300 34028G32KT 4SM -SN BKN015
     FM241200 34028G35KT P6SM BKN025=



000
FTUS43 KFGF 231700
TAFFAR
TAF
KFAR 231731Z 2318/2418 26012KT P6SM BKN040
     FM232000 28015G22KT P6SM BKN035
     FM240000 32020G28KT P6SM BKN020
     FM240300 34028G32KT 4SM -SN BKN015
     FM241200 34028G35KT P6SM BKN025=



000
FTUS43 KFGF 231700
TAFGFK
TAF
KGFK 231731Z 2318/2418 32010KT P6SM BKN025
     FM231900 35014KT P6SM BKN025
     FM240000 35022G30KT 4SM -SN OVC015
     FM240300 34028G35KT 3SM -SN BKN015
      TEMPO 2403/2407 1SM -SN BLSN
     FM241200 34025G33KT P6SM BKN025=



000
FTUS43 KFGF 231700 AAA
TAFGFK
TAF AMD
KGFK 231703Z 2317/2412 26010KT P6SM BKN040
     FM231900 35012KT P6SM BKN025
     FM232100 32022G30KT 4SM -SN OVC015=



000
FTUS43 KFGF 231100
TAFGFK
TAF
KGFK 231135Z 2312/2412 17011KT 5SM BR BKN090
      TEMPO 2312/2314 4SM -RA BR BKN006
     FM231400 26010KT P6SM BKN090
     FM232100 32022G30KT 4SM -SN OVC015=



000
FTUS43 KFGF 231100
TAFFAR
TAF
KFAR 231135Z 2312/2412 18006KT P6SM BKN090
     FM232200 32020G28KT 4SM -SN BKN015=



000
FTUS43 KFGF 230500
TAFGFK
TAF
KGFK 230522Z 2306/2406 17011KT 5SM BR OVC008
      TEMPO 2306/2310 2SM BR BKN004
     FM231400 26010KT P6SM BKN090
     FM232100 32020G27KT 4SM -SN BKN015=



000
FTUS43 KFGF 230500
TAFFAR
TAF
KFAR 230522Z 2306/2406 17011KT 5SM BR BKN008
      TEMPO 2306/2310 2SM BR BKN004
     FM231200 22010KT P6SM BKN090
     FM232200 32020G28KT 4SM -SN BKN015=



000
FTUS43 KFGF 230300 AAB
TAFGFK
TAF AMD
KGFK 230315Z 2303/2324 17010KT 5SM BR BKN008
      TEMPO 2304/2308 2SM BR BKN004
     FM231400 22010KT P6SM BKN090
     FM232000 32015G22KT P6SM BKN015=



000
FTUS43 KFGF 230300 AAA
TAFGFK
TAF AMD
KGFK 230300Z 2303/2324 15008KT P6SM BKN100
     FM230400 17010KT 5SM BR BKN008
      TEMPO 2304/2308 2SM BR BKN004
     FM231400 22010KT P6SM BKN090
     FM232000 32015G22KT P6SM BKN015=



    US Dept of Commerce
    National Oceanic and Atmospheric Administration
    National Weather Service
    1325 East West Highway
    Silver Spring, MD 20910
    Page Author: NWS Internet Services Team
Disclaimer
Information Quality
Credits
Glossary
Privacy Policy
Freedom of Information Act (FOIA)
About Us
Career Opportunities